sensor_id;sensor_type;location;lat;lon;timestamp;pressure;altitude;pressure_sealevel;temperature;humidity
44385;BME280;30101;32.778;34.994;2023-02-13T00:01:40;98385.34;;;8.67;61.79
44385;BME280;30101;32.778;34.994;2023-02-13T00:06:44;98382.06;;;8.65;61.68
44385;BME280;30101;32.778;34.994;2023-02-13T00:11:47;98369.75;;;8.64;61.74
44385;BME280;30101;32.778;34.994;2023-02-13T00:16:50;98373.25;;;8.64;61.60
44385;BME280;30101;32.778;34.994;2023-02-13T00:21:53;98368.75;;;8.65;61.69
44385;BME280;30101;32.778;34.994;2023-02-13T00:26:56;98367.91;;;8.64;61.84
44385;BME280;30101;32.778;34.994;2023-02-13T00:31:59;98370.56;;;8.64;61.83
44385;BME280;30101;32.778;34.994;2023-02-13T00:37:03;98374.25;;;8.63;61.61
44385;BME280;30101;32.778;34.994;2023-02-13T00:42:06;98380.59;;;8.62;61.66
44385;BME280;30101;32.778;34.994;2023-02-13T00:47:09;98378.38;;;8.66;61.73
44385;BME280;30101;32.778;34.994;2023-02-13T00:52:12;98369.03;;;8.70;61.70
44385;BME280;30101;32.778;34.994;2023-02-13T00:57:15;98374.97;;;8.72;61.85
44385;BME280;30101;32.778;34.994;2023-02-13T01:02:19;98366.84;;;8.74;61.47
44385;BME280;30101;32.778;34.994;2023-02-13T01:07:22;98374.63;;;8.75;61.47
44385;BME280;30101;32.778;34.994;2023-02-13T01:12:25;98374.25;;;8.78;61.15
44385;BME280;30101;32.778;34.994;2023-02-13T01:17:28;98371.41;;;8.80;61.71
44385;BME280;30101;32.778;34.994;2023-02-13T01:22:31;98374.91;;;8.80;61.63
44385;BME280;30101;32.778;34.994;2023-02-13T01:27:34;98383.72;;;8.81;61.45
44385;BME280;30101;32.778;34.994;2023-02-13T01:32:39;98375.34;;;8.84;61.33
44385;BME280;30101;32.778;34.994;2023-02-13T01:37:42;98369.22;;;8.83;61.42
44385;BME280;30101;32.778;34.994;2023-02-13T01:42:45;98371.03;;;8.83;61.25
44385;BME280;30101;32.778;34.994;2023-02-13T01:48:15;98382.72;;;8.82;61.48
44385;BME280;30101;32.778;34.994;2023-02-13T01:58:31;98385.56;;;8.80;61.32
44385;BME280;30101;32.778;34.994;2023-02-13T02:08:47;98373.63;;;8.76;61.36
44385;BME280;30101;32.778;34.994;2023-02-13T02:13:56;98367.91;;;8.79;61.33
44385;BME280;30101;32.778;34.994;2023-02-13T02:19:43;98369.00;;;8.85;61.13
44385;BME280;30101;32.778;34.994;2023-02-13T02:25:18;98370.31;;;8.89;61.16
44385;BME280;30101;32.778;34.994;2023-02-13T02:30:49;98375.25;;;8.92;60.87
44385;BME280;30101;32.778;34.994;2023-02-13T02:46:43;98401.78;;;8.85;61.31
44385;BME280;30101;32.778;34.994;2023-02-13T02:57:14;98410.34;;;8.81;61.17
44385;BME280;30101;32.778;34.994;2023-02-13T03:02:25;98411.34;;;8.80;61.40
44385;BME280;30101;32.778;34.994;2023-02-13T03:07:30;98412.53;;;8.77;61.06
44385;BME280;30101;32.778;34.994;2023-02-13T03:13:04;98414.38;;;8.77;61.19
44385;BME280;30101;32.778;34.994;2023-02-13T03:18:08;98416.22;;;8.76;61.36
44385;BME280;30101;32.778;34.994;2023-02-13T03:23:32;98413.56;;;8.76;61.22
44385;BME280;30101;32.778;34.994;2023-02-13T03:28:51;98415.38;;;8.76;61.78
44385;BME280;30101;32.778;34.994;2023-02-13T03:34:05;98406.56;;;8.75;60.88
44385;BME280;30101;32.778;34.994;2023-02-13T03:39:20;98405.09;;;8.73;61.27
44385;BME280;30101;32.778;34.994;2023-02-13T03:49:45;98409.16;;;8.69;61.44
44385;BME280;30101;32.778;34.994;2023-02-13T03:54:55;98417.28;;;8.67;61.49
44385;BME280;30101;32.778;34.994;2023-02-13T04:00:00;98424.28;;;8.68;61.45
44385;BME280;30101;32.778;34.994;2023-02-13T04:05:19;98417.28;;;8.67;61.30
44385;BME280;30101;32.778;34.994;2023-02-13T04:10:26;98418.16;;;8.68;61.16
44385;BME280;30101;32.778;34.994;2023-02-13T04:16:16;98420.31;;;8.64;61.21
44385;BME280;30101;32.778;34.994;2023-02-13T04:21:17;98429.13;;;8.64;61.17
44385;BME280;30101;32.778;34.994;2023-02-13T04:26:22;98427.50;;;8.63;61.23
44385;BME280;30101;32.778;34.994;2023-02-13T04:31:25;98430.16;;;8.63;61.17
44385;BME280;30101;32.778;34.994;2023-02-13T04:36:29;98433.44;;;8.65;60.93
44385;BME280;30101;32.778;34.994;2023-02-13T04:41:32;98439.44;;;8.68;60.98
44385;BME280;30101;32.778;34.994;2023-02-13T04:46:35;98444.09;;;8.65;61.11
44385;BME280;30101;32.778;34.994;2023-02-13T04:51:38;98444.09;;;8.65;60.94
44385;BME280;30101;32.778;34.994;2023-02-13T04:56:41;98445.84;;;8.73;60.86
44385;BME280;30101;32.778;34.994;2023-02-13T05:01:44;98447.97;;;8.78;60.60
44385;BME280;30101;32.778;34.994;2023-02-13T05:06:47;98456.25;;;8.83;60.63
44385;BME280;30101;32.778;34.994;2023-02-13T05:11:52;98458.19;;;8.89;60.50
44385;BME280;30101;32.778;34.994;2023-02-13T05:16:55;98466.09;;;8.97;60.37
44385;BME280;30101;32.778;34.994;2023-02-13T05:21:58;98465.84;;;9.07;60.58
44385;BME280;30101;32.778;34.994;2023-02-13T05:27:02;98474.75;;;9.14;60.60
44385;BME280;30101;32.778;34.994;2023-02-13T05:32:06;98477.97;;;9.24;60.34
44385;BME280;30101;32.778;34.994;2023-02-13T05:37:09;98477.88;;;9.32;60.07
44385;BME280;30101;32.778;34.994;2023-02-13T05:42:12;98488.44;;;9.40;60.17
44385;BME280;30101;32.778;34.994;2023-02-13T05:47:17;98474.00;;;9.50;60.43
44385;BME280;30101;32.778;34.994;2023-02-13T05:52:20;98476.84;;;9.63;59.62
44385;BME280;30101;32.778;34.994;2023-02-13T05:57:23;98477.44;;;9.80;59.64
44385;BME280;30101;32.778;34.994;2023-02-13T06:02:26;98482.97;;;10.14;59.46
44385;BME280;30101;32.778;34.994;2023-02-13T06:07:29;98487.47;;;10.50;59.18
44385;BME280;30101;32.778;34.994;2023-02-13T06:12:32;98493.13;;;10.90;58.06
44385;BME280;30101;32.778;34.994;2023-02-13T06:17:37;98495.00;;;11.24;58.01
44385;BME280;30101;32.778;34.994;2023-02-13T06:22:40;98495.44;;;12.03;56.12
44385;BME280;30101;32.778;34.994;2023-02-13T06:27:43;98488.34;;;13.23;53.06
44385;BME280;30101;32.778;34.994;2023-02-13T06:32:46;98500.69;;;13.11;53.60
44385;BME280;30101;32.778;34.994;2023-02-13T06:37:50;98492.03;;;12.62;54.32
44385;BME280;30101;32.778;34.994;2023-02-13T06:42:53;98496.88;;;12.06;55.24
44385;BME280;30101;32.778;34.994;2023-02-13T06:47:57;98495.44;;;12.10;55.31
44385;BME280;30101;32.778;34.994;2023-02-13T06:53:00;98501.31;;;12.60;54.18
44385;BME280;30101;32.778;34.994;2023-02-13T06:58:04;98499.22;;;12.42;55.30
44385;BME280;30101;32.778;34.994;2023-02-13T07:03:07;98504.72;;;12.07;55.25
44385;BME280;30101;32.778;34.994;2023-02-13T07:08:12;98498.25;;;11.82;55.64
44385;BME280;30101;32.778;34.994;2023-02-13T07:13:15;98498.09;;;11.62;54.94
44385;BME280;30101;32.778;34.994;2023-02-13T07:18:19;98495.00;;;11.58;55.05
44385;BME280;30101;32.778;34.994;2023-02-13T07:23:22;98495.63;;;11.60;54.72
44385;BME280;30101;32.778;34.994;2023-02-13T07:28:25;98496.25;;;11.62;54.41
44385;BME280;30101;32.778;34.994;2023-02-13T07:33:29;98498.75;;;11.64;54.60
44385;BME280;30101;32.778;34.994;2023-02-13T07:38:32;98490.97;;;11.69;54.49
44385;BME280;30101;32.778;34.994;2023-02-13T07:43:35;98490.78;;;11.77;55.27
44385;BME280;30101;32.778;34.994;2023-02-13T07:48:38;98493.72;;;11.82;54.51
44385;BME280;30101;32.778;34.994;2023-02-13T07:53:42;98491.06;;;11.89;53.87
44385;BME280;30101;32.778;34.994;2023-02-13T07:58:45;98488.00;;;11.99;53.84
44385;BME280;30101;32.778;34.994;2023-02-13T08:03:49;98495.22;;;12.05;53.88
44385;BME280;30101;32.778;34.994;2023-02-13T08:08:53;98500.38;;;12.13;54.29
44385;BME280;30101;32.778;34.994;2023-02-13T08:13:56;98486.19;;;12.19;53.54
44385;BME280;30101;32.778;34.994;2023-02-13T08:18:59;98484.16;;;12.21;53.61
44385;BME280;30101;32.778;34.994;2023-02-13T08:24:03;98472.63;;;12.27;53.65
44385;BME280;30101;32.778;34.994;2023-02-13T08:29:07;98473.06;;;12.37;53.57
44385;BME280;30101;32.778;34.994;2023-02-13T08:34:10;98467.69;;;12.44;53.47
44385;BME280;30101;32.778;34.994;2023-02-13T08:39:13;98467.91;;;12.42;52.94
44385;BME280;30101;32.778;34.994;2023-02-13T08:44:17;98468.34;;;12.46;53.45
44385;BME280;30101;32.778;34.994;2023-02-13T08:49:20;98455.34;;;12.50;53.41
44385;BME280;30101;32.778;34.994;2023-02-13T08:54:23;98456.59;;;12.54;52.86
44385;BME280;30101;32.778;34.994;2023-02-13T08:59:26;98442.59;;;12.58;53.18
44385;BME280;30101;32.778;34.994;2023-02-13T09:04:29;98441.13;;;12.69;52.83
44385;BME280;30101;32.778;34.994;2023-02-13T09:09:33;98419.91;;;12.67;52.64
44385;BME280;30101;32.778;34.994;2023-02-13T09:14:36;98434.94;;;12.82;52.51
44385;BME280;30101;32.778;34.994;2023-02-13T09:19:39;98433.50;;;12.92;52.26
44385;BME280;30101;32.778;34.994;2023-02-13T09:24:42;98426.69;;;12.96;52.06
44385;BME280;30101;32.778;34.994;2023-02-13T09:29:45;98433.09;;;12.95;51.70
44385;BME280;30101;32.778;34.994;2023-02-13T09:34:49;98428.75;;;13.01;52.00
44385;BME280;30101;32.778;34.994;2023-02-13T09:39:52;98416.16;;;13.08;51.80
44385;BME280;30101;32.778;34.994;2023-02-13T09:44:59;98417.19;;;13.14;51.42
44385;BME280;30101;32.778;34.994;2023-02-13T09:50:20;98416.53;;;13.18;51.34
44385;BME280;30101;32.778;34.994;2023-02-13T09:55:43;98401.28;;;13.26;51.48
44385;BME280;30101;32.778;34.994;2023-02-13T10:00:56;98404.78;;;13.33;51.40
44385;BME280;30101;32.778;34.994;2023-02-13T10:06:18;98389.91;;;13.37;51.38
44385;BME280;30101;32.778;34.994;2023-02-13T10:17:05;98369.88;;;13.39;51.07
44385;BME280;30101;32.778;34.994;2023-02-13T10:22:16;98367.41;;;13.38;50.90
44385;BME280;30101;32.778;34.994;2023-02-13T10:27:43;98370.06;;;13.38;50.61
44385;BME280;30101;32.778;34.994;2023-02-13T10:33:09;98364.13;;;13.36;50.89
44385;BME280;30101;32.778;34.994;2023-02-13T10:38:17;98357.53;;;13.32;50.84
44385;BME280;30101;32.778;34.994;2023-02-13T10:43:26;98348.88;;;13.30;50.63
44385;BME280;30101;32.778;34.994;2023-02-13T10:59:30;98328.84;;;13.32;51.00
44385;BME280;30101;32.778;34.994;2023-02-13T11:04:34;98323.47;;;13.32;50.96
44385;BME280;30101;32.778;34.994;2023-02-13T11:09:40;98311.09;;;13.31;50.87
44385;BME280;30101;32.778;34.994;2023-02-13T11:15:02;98306.59;;;13.25;50.67
44385;BME280;30101;32.778;34.994;2023-02-13T11:25:26;98314.22;;;13.28;50.49
44385;BME280;30101;32.778;34.994;2023-02-13T11:30:33;98296.47;;;13.34;50.19
44385;BME280;30101;32.778;34.994;2023-02-13T11:35:37;98302.69;;;13.28;49.85
44385;BME280;30101;32.778;34.994;2023-02-13T11:40:42;98313.22;;;13.22;50.28
44385;BME280;30101;32.778;34.994;2023-02-13T11:45:46;98316.13;;;13.21;50.49
44385;BME280;30101;32.778;34.994;2023-02-13T11:50:53;98299.59;;;13.24;50.14
44385;BME280;30101;32.778;34.994;2023-02-13T12:06:23;98294.41;;;13.29;50.24
44385;BME280;30101;32.778;34.994;2023-02-13T12:16:53;98291.13;;;13.27;50.46
44385;BME280;30101;32.778;34.994;2023-02-13T13:05:25;98273.41;;;13.13;51.08
44385;BME280;30101;32.778;34.994;2023-02-13T13:16:10;98268.88;;;13.13;50.83
44385;BME280;30101;32.778;34.994;2023-02-13T13:26:40;98268.69;;;13.15;50.92
44385;BME280;30101;32.778;34.994;2023-02-13T13:31:55;98271.16;;;13.10;50.61
44385;BME280;30101;32.778;34.994;2023-02-13T13:53:20;98274.13;;;12.88;50.52
44385;BME280;30101;32.778;34.994;2023-02-13T13:58:44;98271.66;;;12.87;51.10
44385;BME280;30101;32.778;34.994;2023-02-13T14:04:35;98273.97;;;12.83;50.81
44385;BME280;30101;32.778;34.994;2023-02-13T14:19:36;98283.06;;;12.62;50.55
44385;BME280;30101;32.778;34.994;2023-02-13T14:24:40;98280.22;;;12.57;50.78
44385;BME280;30101;32.778;34.994;2023-02-13T14:29:47;98284.75;;;12.50;50.98
44385;BME280;30101;32.778;34.994;2023-02-13T14:34:54;98285.41;;;12.39;50.15
44385;BME280;30101;32.778;34.994;2023-02-13T14:40:43;98286.44;;;12.31;50.83
44385;BME280;30101;32.778;34.994;2023-02-13T14:45:53;98291.19;;;12.23;50.36
44385;BME280;30101;32.778;34.994;2023-02-13T14:50:57;98294.69;;;12.17;50.26
44385;BME280;30101;32.778;34.994;2023-02-13T14:56:06;98302.13;;;12.08;50.58
44385;BME280;30101;32.778;34.994;2023-02-13T15:01:27;98306.84;;;11.93;50.49
44385;BME280;30101;32.778;34.994;2023-02-13T15:06:37;98314.22;;;11.77;50.76
44385;BME280;30101;32.778;34.994;2023-02-13T15:11:42;98306.97;;;11.65;51.60
44385;BME280;30101;32.778;34.994;2023-02-13T15:16:50;98305.94;;;11.52;51.50
44385;BME280;30101;32.778;34.994;2023-02-13T15:22:00;98310.84;;;11.42;51.89
44385;BME280;30101;32.778;34.994;2023-02-13T15:27:05;98310.81;;;11.35;52.37
44385;BME280;30101;32.778;34.994;2023-02-13T15:32:20;98314.50;;;11.28;52.49
44385;BME280;30101;32.778;34.994;2023-02-13T15:37:29;98326.81;;;11.22;52.85
44385;BME280;30101;32.778;34.994;2023-02-13T15:42:33;98333.56;;;11.18;53.11
44385;BME280;30101;32.778;34.994;2023-02-13T15:47:37;98326.59;;;11.17;52.68
44385;BME280;30101;32.778;34.994;2023-02-13T15:52:41;98338.31;;;11.16;52.66
44385;BME280;30101;32.778;34.994;2023-02-13T15:57:45;98338.91;;;11.18;53.18
44385;BME280;30101;32.778;34.994;2023-02-13T16:02:49;98342.63;;;11.17;52.96
44385;BME280;30101;32.778;34.994;2023-02-13T16:07:56;98347.38;;;11.22;53.32
44385;BME280;30101;32.778;34.994;2023-02-13T16:13:05;98352.94;;;11.20;53.17
44385;BME280;30101;32.778;34.994;2023-02-13T16:18:18;98348.63;;;11.26;53.30
44385;BME280;30101;32.778;34.994;2023-02-13T16:23:21;98356.00;;;11.24;54.04
44385;BME280;30101;32.778;34.994;2023-02-13T16:28:26;98349.44;;;11.20;53.91
44385;BME280;30101;32.778;34.994;2023-02-13T16:33:39;98351.06;;;11.14;53.42
44385;BME280;30101;32.778;34.994;2023-02-13T16:38:45;98348.34;;;11.07;53.71
44385;BME280;30101;32.778;34.994;2023-02-13T16:44:04;98345.22;;;11.04;54.02
44385;BME280;30101;32.778;34.994;2023-02-13T17:05:19;98343.16;;;10.99;54.11
44385;BME280;30101;32.778;34.994;2023-02-13T17:10:34;98352.16;;;10.92;54.36
44385;BME280;30101;32.778;34.994;2023-02-13T17:15:43;98344.31;;;10.84;54.81
44385;BME280;30101;32.778;34.994;2023-02-13T17:20:46;98341.81;;;10.75;55.46
44385;BME280;30101;32.778;34.994;2023-02-13T17:25:51;98345.06;;;10.71;55.47
44385;BME280;30101;32.778;34.994;2023-02-13T17:30:56;98343.38;;;10.63;55.78
44385;BME280;30101;32.778;34.994;2023-02-13T17:36:00;98336.16;;;10.57;55.09
44385;BME280;30101;32.778;34.994;2023-02-13T17:41:07;98329.09;;;10.49;55.08
44385;BME280;30101;32.778;34.994;2023-02-13T17:46:13;98331.72;;;10.43;55.67
44385;BME280;30101;32.778;34.994;2023-02-13T17:51:16;98342.19;;;10.38;55.90
44385;BME280;30101;32.778;34.994;2023-02-13T17:56:20;98335.94;;;10.31;55.58
44385;BME280;30101;32.778;34.994;2023-02-13T18:01:23;98340.84;;;10.27;55.30
44385;BME280;30101;32.778;34.994;2023-02-13T18:06:27;98351.72;;;10.25;56.09
44385;BME280;30101;32.778;34.994;2023-02-13T18:11:30;98344.25;;;10.21;55.59
44385;BME280;30101;32.778;34.994;2023-02-13T18:16:33;98333.97;;;10.18;56.02
44385;BME280;30101;32.778;34.994;2023-02-13T18:21:37;98341.34;;;10.16;56.19
44385;BME280;30101;32.778;34.994;2023-02-13T18:26:40;98335.59;;;10.12;56.10
44385;BME280;30101;32.778;34.994;2023-02-13T18:31:43;98336.97;;;10.08;56.00
44385;BME280;30101;32.778;34.994;2023-02-13T18:36:47;98333.44;;;10.01;56.49
44385;BME280;30101;32.778;34.994;2023-02-13T18:41:50;98335.44;;;9.99;56.09
44385;BME280;30101;32.778;34.994;2023-02-13T18:46:53;98328.88;;;9.95;56.38
44385;BME280;30101;32.778;34.994;2023-02-13T18:51:57;98329.06;;;9.93;56.29
44385;BME280;30101;32.778;34.994;2023-02-13T18:57:00;98323.47;;;9.88;56.42
44385;BME280;30101;32.778;34.994;2023-02-13T19:02:04;98321.44;;;9.90;56.42
44385;BME280;30101;32.778;34.994;2023-02-13T19:07:07;98324.66;;;9.86;56.71
44385;BME280;30101;32.778;34.994;2023-02-13T19:12:10;98325.06;;;9.83;56.65
44385;BME280;30101;32.778;34.994;2023-02-13T19:17:14;98317.88;;;9.83;56.73
44385;BME280;30101;32.778;34.994;2023-02-13T19:22:17;98319.09;;;9.81;56.65
44385;BME280;30101;32.778;34.994;2023-02-13T19:27:21;98321.13;;;9.79;56.24
44385;BME280;30101;32.778;34.994;2023-02-13T19:32:24;98317.81;;;9.77;56.29
44385;BME280;30101;32.778;34.994;2023-02-13T19:37:27;98313.69;;;9.74;56.93
44385;BME280;30101;32.778;34.994;2023-02-13T19:42:43;98316.53;;;9.72;57.05
44385;BME280;30101;32.778;34.994;2023-02-13T19:47:47;98311.41;;;9.71;56.70
44385;BME280;30101;32.778;34.994;2023-02-13T19:52:50;98312.78;;;9.67;57.20
44385;BME280;30101;32.778;34.994;2023-02-13T19:57:53;98308.47;;;9.66;57.36
44385;BME280;30101;32.778;34.994;2023-02-13T20:03:03;98299.03;;;9.63;57.74
44385;BME280;30101;32.778;34.994;2023-02-13T20:08:06;98298.38;;;9.61;57.46
44385;BME280;30101;32.778;34.994;2023-02-13T20:13:10;98307.22;;;9.62;57.52
44385;BME280;30101;32.778;34.994;2023-02-13T20:18:13;98295.72;;;9.61;57.92
44385;BME280;30101;32.778;34.994;2023-02-13T20:23:17;98285.72;;;9.63;58.20
44385;BME280;30101;32.778;34.994;2023-02-13T20:28:21;98286.72;;;9.62;58.53
44385;BME280;30101;32.778;34.994;2023-02-13T20:33:24;98283.88;;;9.64;57.96
44385;BME280;30101;32.778;34.994;2023-02-13T20:38:28;98279.16;;;9.66;58.25
44385;BME280;30101;32.778;34.994;2023-02-13T20:43:31;98281.63;;;9.67;58.69
44385;BME280;30101;32.778;34.994;2023-02-13T20:48:35;98275.88;;;9.64;58.66
44385;BME280;30101;32.778;34.994;2023-02-13T20:53:39;98269.06;;;9.61;58.62
44385;BME280;30101;32.778;34.994;2023-02-13T20:58:44;98271.72;;;9.61;58.92
44385;BME280;30101;32.778;34.994;2023-02-13T21:03:48;98271.28;;;9.58;58.86
44385;BME280;30101;32.778;34.994;2023-02-13T21:08:52;98256.31;;;9.57;58.95
44385;BME280;30101;32.778;34.994;2023-02-13T21:13:56;98263.88;;;9.53;59.11
44385;BME280;30101;32.778;34.994;2023-02-13T21:19:03;98259.56;;;9.52;59.47
44385;BME280;30101;32.778;34.994;2023-02-13T21:24:10;98254.63;;;9.49;59.67
44385;BME280;30101;32.778;34.994;2023-02-13T21:29:13;98256.63;;;9.47;59.32
44385;BME280;30101;32.778;34.994;2023-02-13T21:34:17;98254.78;;;9.48;59.60
44385;BME280;30101;32.778;34.994;2023-02-13T21:39:20;98257.44;;;9.48;59.05
44385;BME280;30101;32.778;34.994;2023-02-13T21:44:24;98245.75;;;9.49;59.41
44385;BME280;30101;32.778;34.994;2023-02-13T21:49:27;98241.28;;;9.49;59.56
44385;BME280;30101;32.778;34.994;2023-02-13T21:54:30;98243.09;;;9.49;59.86
44385;BME280;30101;32.778;34.994;2023-02-13T21:59:33;98242.47;;;9.46;59.61
44385;BME280;30101;32.778;34.994;2023-02-13T22:04:36;98241.66;;;9.46;59.98
44385;BME280;30101;32.778;34.994;2023-02-13T22:09:39;98228.53;;;9.44;59.38
44385;BME280;30101;32.778;34.994;2023-02-13T22:14:43;98231.19;;;9.44;60.00
44385;BME280;30101;32.778;34.994;2023-02-13T22:19:46;98232.22;;;9.43;59.75
44385;BME280;30101;32.778;34.994;2023-02-13T22:24:49;98232.38;;;9.42;59.61
44385;BME280;30101;32.778;34.994;2023-02-13T22:29:52;98232.56;;;9.40;59.95
44385;BME280;30101;32.778;34.994;2023-02-13T22:34:55;98224.78;;;9.39;59.92
44385;BME280;30101;32.778;34.994;2023-02-13T22:39:58;98223.97;;;9.38;60.13
44385;BME280;30101;32.778;34.994;2023-02-13T22:45:04;98223.75;;;9.40;60.29
44385;BME280;30101;32.778;34.994;2023-02-13T22:50:07;98218.22;;;9.41;59.59
44385;BME280;30101;32.778;34.994;2023-02-13T22:55:10;98217.03;;;9.44;59.93
44385;BME280;30101;32.778;34.994;2023-02-13T23:00:14;98211.88;;;9.42;60.21
44385;BME280;30101;32.778;34.994;2023-02-13T23:05:17;98208.41;;;9.42;59.79
44385;BME280;30101;32.778;34.994;2023-02-13T23:10:21;98207.56;;;9.41;60.12
44385;BME280;30101;32.778;34.994;2023-02-13T23:15:25;98202.44;;;9.40;59.87
44385;BME280;30101;32.778;34.994;2023-02-13T23:20:28;98206.94;;;9.39;59.51
44385;BME280;30101;32.778;34.994;2023-02-13T23:25:31;98189.31;;;9.38;59.63
44385;BME280;30101;32.778;34.994;2023-02-13T23:30:34;98195.28;;;9.40;59.88
44385;BME280;30101;32.778;34.994;2023-02-13T23:35:37;98190.34;;;9.37;59.10
44385;BME280;30101;32.778;34.994;2023-02-13T23:40:40;98191.59;;;9.41;59.01
44385;BME280;30101;32.778;34.994;2023-02-13T23:45:43;98187.28;;;9.40;59.26
44385;BME280;30101;32.778;34.994;2023-02-13T23:50:46;98179.84;;;9.36;58.91
44385;BME280;30101;32.778;34.994;2023-02-13T23:55:49;98180.66;;;9.36;58.68
